Time;durP1;ratioP1;P1;durP2;ratioP2;P2;SDS_P1;SDS_P2;PMS_P1;PMS_P2;Temp;Humidity;BMP_temperature;BMP_pressure;BME280_temperature;BME280_humidity;BME280_pressure;Samples;Min_cycle;Max_cycle;Signal;HPM_P1;HPM_P2
2023/10/23 00:01:38;;;;;;;13.23;2.97;;;;;;;19.19;92.29;101361.66;20881139;28;20056;-73
2023/10/23 00:12:01;;;;;;;12.73;3.10;;;;;;;19.19;88.82;101356.31;20862138;28;20052;-74
2023/10/23 00:22:26;;;;;;;15.05;2.83;;;;;;;19.08;82.71;101346.59;20997940;28;20045;-74
2023/10/23 00:32:48;;;;;;;15.00;2.95;;;;;;;19.07;77.85;101330.56;20913901;28;20049;-74
2023/10/23 00:43:19;;;;;;;15.48;3.15;;;;;;;19.11;72.27;101330.50;20904853;28;20045;-74
2023/10/23 00:53:43;;;;;;;11.93;2.83;;;;;;;19.15;68.06;101334.06;20907242;28;20056;-74
2023/10/23 01:04:08;;;;;;;9.52;2.38;;;;;;;19.16;64.26;101322.44;20864239;28;20053;-74
2023/10/23 01:14:30;;;;;;;16.90;2.90;;;;;;;19.12;62.64;101320.69;20894316;28;20052;-73
2023/10/23 01:24:55;;;;;;;16.33;3.13;;;;;;;19.19;60.56;101313.47;20874371;28;20053;-74
2023/10/23 01:35:19;;;;;;;15.02;3.35;;;;;;;19.15;59.13;101318.00;20856354;28;20103;-74
2023/10/23 01:45:42;;;;;;;17.17;2.70;;;;;;;19.18;56.85;101333.13;20878597;28;20489;-74
2023/10/23 01:56:18;;;;;;;12.20;2.47;;;;;;;19.22;54.13;101325.06;20841289;28;20161;-73
2023/10/23 02:06:41;;;;;;;17.15;3.08;;;;;;;19.14;54.62;101336.75;20898323;28;20088;-73
2023/10/23 02:17:05;;;;;;;15.88;3.58;;;;;;;19.07;54.96;101336.81;20885337;28;20053;-74
2023/10/23 02:27:31;;;;;;;14.77;3.47;;;;;;;18.93;56.99;101329.81;20904707;28;20041;-74
2023/10/23 02:37:55;;;;;;;18.98;3.92;;;;;;;18.81;58.69;101344.19;20895056;28;20452;-74
2023/10/23 02:48:18;;;;;;;13.85;3.42;;;;;;;18.75;58.51;101354.94;20878848;28;20047;-73
2023/10/23 02:58:44;;;;;;;22.35;4.35;;;;;;;18.68;58.29;101354.09;20851591;28;20060;-73
2023/10/23 03:09:07;;;;;;;15.60;3.30;;;;;;;18.68;56.32;101358.56;20898889;28;20052;-73
2023/10/23 03:19:32;;;;;;;17.20;3.90;;;;;;;18.61;56.37;101341.69;20851604;28;20045;-75
2023/10/23 03:29:54;;;;;;;16.60;3.53;;;;;;;18.53;57.21;101335.47;20898055;28;20106;-74
2023/10/23 03:40:20;;;;;;;15.48;3.15;;;;;;;18.45;58.73;101342.66;20896855;28;20045;-73
2023/10/23 03:50:42;;;;;;;17.40;3.58;;;;;;;18.35;58.35;101335.59;20905358;28;20049;-74
2023/10/23 04:01:06;;;;;;;21.60;3.97;;;;;;;18.23;58.39;101333.03;20888851;28;20069;-73
2023/10/23 04:11:29;;;;;;;20.88;3.55;;;;;;;18.36;56.83;101340.06;20894965;28;20110;-75
2023/10/23 04:21:53;;;;;;;16.08;3.25;;;;;;;18.24;57.78;101338.38;20916854;28;20055;-74
2023/10/23 04:32:15;;;;;;;21.25;3.47;;;;;;;18.09;59.32;101349.16;20888734;28;20049;-74
2023/10/23 04:42:39;;;;;;;15.65;3.75;;;;;;;18.14;59.25;101358.00;20882098;28;20053;-74
2023/10/23 04:53:02;;;;;;;15.52;3.20;;;;;;;18.26;57.57;101359.72;20914623;28;20153;-74
2023/10/23 05:03:25;;;;;;;17.88;3.42;;;;;;;18.41;56.57;101364.97;20871023;28;20469;-74
2023/10/23 05:13:48;;;;;;;17.08;3.08;;;;;;;18.82;55.37;101388.78;20907176;28;20045;-74
2023/10/23 05:24:12;;;;;;;19.50;3.60;;;;;;;19.34;61.06;101402.56;20870083;28;20064;-74
2023/10/23 05:34:34;;;;;;;17.70;3.47;;;;;;;19.83;66.97;101405.59;20908318;28;20444;-74
2023/10/23 05:44:58;;;;;;;23.25;3.30;;;;;;;20.46;71.38;101416.44;20944311;28;20056;-75
2023/10/23 05:55:20;;;;;;;23.02;3.83;;;;;;;20.96;66.67;101420.13;20964472;28;20045;-76
2023/10/23 06:05:44;;;;;;;15.52;3.70;;;;;;;21.56;65.02;101430.72;20982016;28;20040;-73
2023/10/23 06:16:07;;;;;;;23.25;2.88;;;;;;;22.39;62.70;101428.13;20928360;28;20115;-75
2023/10/23 06:26:31;;;;;;;16.48;3.65;;;;;;;23.13;57.90;101434.44;20982415;28;20095;-78
2023/10/23 06:36:54;;;;;;;22.88;3.58;;;;;;;23.81;57.45;101440.72;21010598;28;20049;-79
2023/10/23 06:47:18;;;;;;;17.33;3.00;;;;;;;24.64;55.98;101436.47;20981840;28;20051;-79
2023/10/23 06:57:40;;;;;;;11.57;2.20;;;;;;;25.32;63.15;101436.91;20997218;28;20056;-79
2023/10/23 07:08:05;;;;;;;13.43;2.20;;;;;;;26.15;70.73;101426.69;20996266;28;20048;-79
2023/10/23 07:18:27;;;;;;;14.30;2.55;;;;;;;26.69;64.04;101417.38;20940849;28;20489;-78
2023/10/23 07:28:51;;;;;;;13.75;2.67;;;;;;;27.21;52.54;101408.84;20964534;28;20389;-79
2023/10/23 07:39:14;;;;;;;19.20;3.72;;;;;;;27.63;51.96;101410.69;21009279;28;20049;-78
2023/10/23 07:49:39;;;;;;;13.68;3.17;;;;;;;28.10;50.12;101411.19;21006991;28;20052;-78
2023/10/23 08:00:06;;;;;;;12.27;2.23;;;;;;;28.61;54.14;101404.28;20990370;28;20075;-79
2023/10/23 08:10:30;;;;;;;9.93;2.30;;;;;;;28.78;55.24;101404.34;20997290;28;20049;-80
2023/10/23 08:20:52;;;;;;;12.18;2.55;;;;;;;29.00;61.15;101409.59;20977889;28;20502;-80
2023/10/23 08:31:17;;;;;;;10.60;1.70;;;;;;;29.09;58.65;101395.50;21007694;28;20128;-79
2023/10/23 08:41:39;;;;;;;13.20;2.03;;;;;;;29.10;61.72;101402.72;20968185;28;20044;-79
2023/10/23 08:52:06;;;;;;;11.13;2.72;;;;;;;29.60;59.36;101408.28;20993263;28;20043;-79
2023/10/23 09:02:31;;;;;;;15.02;2.78;;;;;;;29.94;51.83;101407.34;20999357;28;20049;-79
2023/10/23 09:12:57;;;;;;;10.50;1.77;;;;;;;30.29;47.47;101408.13;20892987;28;20044;-78
2023/10/23 09:23:20;;;;;;;14.73;2.25;;;;;;;30.28;46.54;101392.75;20887761;28;20127;-77
2023/10/23 09:33:45;;;;;;;9.63;2.25;;;;;;;30.52;48.13;101382.34;20920100;28;20098;-79
2023/10/23 09:44:08;;;;;;;11.07;2.83;;;;;;;30.78;47.54;101368.94;20891138;28;20072;-79
2023/10/23 09:54:38;;;;;;;12.52;3.08;;;;;;;30.95;45.93;101364.31;20872200;28;20045;-77
2023/10/23 10:05:04;;;;;;;9.82;2.10;;;;;;;31.05;48.42;101354.69;20886782;28;20053;-79
2023/10/23 10:15:27;;;;;;;;;;;;;;;31.07;49.39;101344.53;20880242;28;20072;-79
2023/10/23 10:25:50;;;;;;;12.95;2.35;;;;;;;31.01;51.06;101342.13;20826056;28;20361;-79
2023/10/23 10:36:17;;;;;;;10.52;2.13;;;;;;;30.76;54.88;101331.81;20881654;28;20080;-78
2023/10/23 10:46:41;;;;;;;12.13;2.47;;;;;;;30.41;58.27;101315.66;20898551;28;20044;-78
2023/10/23 10:57:05;;;;;;;10.88;2.20;;;;;;;30.06;61.33;101306.78;20879047;28;20055;-77
2023/10/23 11:07:28;;;;;;;8.18;2.60;;;;;;;29.87;61.21;101297.84;20878554;28;20553;-79
2023/10/23 11:17:53;;;;;;;6.93;2.40;;;;;;;29.67;62.95;101298.06;20907245;28;20041;-77
2023/10/23 11:28:18;;;;;;;12.50;2.90;;;;;;;29.50;66.47;101288.13;20889510;28;23719;-79
2023/10/23 11:38:42;;;;;;;6.72;2.25;;;;;;;29.27;67.26;101285.75;20851901;28;20049;-80
2023/10/23 11:49:04;;;;;;;8.23;2.00;;;;;;;28.93;57.84;101275.78;20848075;28;20099;-78
2023/10/23 11:59:29;;;;;;;9.25;2.30;;;;;;;28.81;56.45;101271.88;20846529;28;20053;-77
2023/10/23 12:09:51;;;;;;;7.95;2.13;;;;;;;28.49;64.44;101264.44;20878179;28;20576;-77
2023/10/23 12:20:16;;;;;;;9.73;2.30;;;;;;;28.42;63.01;101252.16;20899993;28;20755;-77
2023/10/23 12:30:39;;;;;;;13.77;2.30;;;;;;;28.24;56.19;101243.06;20859669;28;20559;-78
2023/10/23 12:41:03;;;;;;;12.25;2.80;;;;;;;28.24;51.95;101236.75;20864692;28;20052;-78
2023/10/23 12:51:26;;;;;;;9.13;2.63;;;;;;;28.17;55.31;101246.16;20879240;28;20053;-78
2023/10/23 13:01:50;;;;;;;9.63;2.55;;;;;;;28.04;59.92;101240.41;20891890;28;20049;-77
2023/10/23 13:12:13;;;;;;;10.43;2.20;;;;;;;27.83;56.79;101236.91;20891102;28;20049;-77
2023/10/23 13:22:37;;;;;;;7.90;1.80;;;;;;;27.73;53.73;101225.63;20878719;28;20564;-77
2023/10/23 13:33:00;;;;;;;7.20;2.13;;;;;;;27.59;52.03;101217.28;20873964;28;20057;-77
2023/10/23 13:43:24;;;;;;;10.38;2.10;;;;;;;27.42;48.64;101211.75;20887893;28;20130;-76
2023/10/23 13:53:47;;;;;;;8.73;1.83;;;;;;;27.20;47.24;101216.41;20888107;28;20131;-77
2023/10/23 14:04:11;;;;;;;6.88;2.33;;;;;;;27.01;48.06;101224.50;20887411;28;20130;-77
2023/10/23 14:14:33;;;;;;;10.75;2.30;;;;;;;26.71;49.88;101221.31;20887697;28;20049;-76
2023/10/23 14:24:58;;;;;;;10.75;2.33;;;;;;;26.48;52.17;101222.28;20923195;28;20055;-78
2023/10/23 14:35:20;;;;;;;7.40;2.30;;;;;;;26.27;58.25;101228.59;20943547;28;20049;-77
2023/10/23 14:45:44;;;;;;;8.13;1.98;;;;;;;26.04;60.45;101218.72;20956505;28;20052;-78
2023/10/23 14:56:10;;;;;;;7.53;2.45;;;;;;;25.91;61.02;101227.38;20914162;28;20409;-76
2023/10/23 15:06:35;;;;;;;6.10;2.42;;;;;;;25.72;62.14;101224.53;20884344;28;20742;-76
2023/10/23 15:16:58;;;;;;;8.82;3.22;;;;;;;25.50;63.27;101234.38;20879228;28;20397;-77
2023/10/23 15:27:22;;;;;;;10.27;2.60;;;;;;;25.22;65.72;101235.44;20874790;28;20106;-76
2023/10/23 15:37:45;;;;;;;10.90;2.95;;;;;;;24.91;67.24;101237.50;20900491;28;20045;-76
2023/10/23 15:48:09;;;;;;;8.20;2.50;;;;;;;24.68;69.45;101230.16;20873721;28;20037;-76
2023/10/23 15:58:31;;;;;;;12.88;2.67;;;;;;;24.51;68.82;101238.88;20905005;28;20052;-75
2023/10/23 16:08:55;;;;;;;9.10;2.67;;;;;;;24.20;69.80;101246.25;20931043;28;20045;-75
2023/10/23 16:19:18;;;;;;;15.15;2.78;;;;;;;24.02;69.77;101249.50;20901070;28;20187;-76
2023/10/23 16:29:42;;;;;;;10.05;3.17;;;;;;;23.78;70.71;101254.72;20893483;28;20084;-77
2023/10/23 16:40:05;;;;;;;8.48;2.60;;;;;;;23.51;71.68;101255.56;20867595;28;20506;-77
2023/10/23 16:50:29;;;;;;;13.65;3.20;;;;;;;23.34;75.16;101271.31;20875450;28;20042;-76
2023/10/23 17:00:53;;;;;;;9.40;3.10;;;;;;;23.05;77.82;101264.94;20888838;28;20045;-76
2023/10/23 17:11:18;;;;;;;9.88;3.03;;;;;;;22.88;79.14;101275.28;20909586;28;20095;-75
2023/10/23 17:21:40;;;;;;;18.48;3.80;;;;;;;22.73;79.13;101285.56;20868421;28;20688;-75
2023/10/23 17:32:08;;;;;;;10.80;3.30;;;;;;;22.56;80.73;101289.56;20891592;28;20428;-76
2023/10/23 17:42:31;;;;;;;10.87;2.90;;;;;;;22.40;80.46;101285.47;20891359;28;20056;-76
2023/10/23 17:52:54;;;;;;;16.23;3.38;;;;;;;22.33;83.21;101293.72;20887148;28;20508;-77
2023/10/23 18:03:18;;;;;;;13.10;3.50;;;;;;;22.25;83.47;101285.88;20888880;28;20048;-76
2023/10/23 18:13:43;;;;;;;13.35;3.08;;;;;;;22.07;85.91;101287.16;20888095;28;20048;-75
2023/10/23 18:24:07;;;;;;;8.32;2.47;;;;;;;21.94;84.42;101285.66;20866714;28;20045;-76
2023/10/23 18:34:32;;;;;;;8.63;2.53;;;;;;;21.72;82.85;101284.38;20886273;28;20048;-75
2023/10/23 18:44:55;;;;;;;12.98;3.30;;;;;;;21.50;83.36;101283.06;20878026;28;20052;-74
2023/10/23 18:55:20;;;;;;;15.20;3.53;;;;;;;21.34;84.34;101286.03;20884898;28;20405;-75
2023/10/23 19:05:43;;;;;;;11.32;3.00;;;;;;;21.19;84.94;101296.22;20882595;28;20052;-75
2023/10/23 19:16:08;;;;;;;10.57;4.05;;;;;;;21.05;86.44;101305.41;20909629;28;20044;-76
2023/10/23 19:26:30;;;;;;;10.15;2.60;;;;;;;20.96;87.04;101302.88;20974342;28;20047;-76
2023/10/23 19:36:56;;;;;;;10.65;3.72;;;;;;;20.85;89.39;101296.81;20993026;28;20044;-75
2023/10/23 19:47:19;;;;;;;15.68;3.55;;;;;;;20.64;91.08;101306.13;20890775;28;20041;-76
2023/10/23 19:57:44;;;;;;;13.25;3.60;;;;;;;20.48;92.01;101315.34;20884200;28;20045;-78
2023/10/23 20:08:07;;;;;;;13.23;3.85;;;;;;;20.55;89.92;101321.50;20936184;28;20095;-77
2023/10/23 20:18:30;;;;;;;9.52;2.50;;;;;;;20.42;91.18;101319.91;20943581;28;20064;-77
2023/10/23 20:28:53;;;;;;;10.43;2.95;;;;;;;20.32;90.84;101297.69;21000061;28;20045;-78
2023/10/23 20:39:17;;;;;;;9.35;2.70;;;;;;;20.25;89.57;101304.06;21002691;28;20076;-77
2023/10/23 20:49:39;;;;;;;13.13;2.75;;;;;;;20.17;89.02;101303.28;21007238;28;20076;-77
2023/10/23 21:00:06;;;;;;;12.10;2.92;;;;;;;20.01;91.61;101305.34;20991178;28;20060;-78
2023/10/23 21:10:28;;;;;;;9.60;2.78;;;;;;;19.88;92.15;101309.97;20977649;28;20114;-77
2023/10/23 21:20:53;;;;;;;11.15;2.42;;;;;;;19.75;92.43;101300.34;20987692;28;20041;-78
2023/10/23 21:31:16;;;;;;;10.13;2.65;;;;;;;19.74;90.34;101300.34;20960978;28;20063;-79
2023/10/23 21:41:42;;;;;;;7.70;2.78;;;;;;;19.67;91.24;101301.34;21002643;28;20032;-78
2023/10/23 21:52:05;;;;;;;10.50;3.40;;;;;;;19.58;95.04;101288.94;21015819;28;20044;-78
2023/10/23 22:02:30;;;;;;;9.27;3.05;;;;;;;19.51;99.12;101295.28;20996629;28;20052;-78
2023/10/23 22:12:54;;;;;;;9.18;3.17;;;;;;;19.47;100.00;101288.19;21011886;28;20448;-78
2023/10/23 22:23:18;;;;;;;6.68;2.92;;;;;;;19.38;100.00;101282.91;20968341;28;20446;-78
2023/10/23 22:33:40;;;;;;;9.45;3.60;;;;;;;19.23;100.00;101280.44;20976928;28;20059;-78
2023/10/23 22:44:05;;;;;;;8.05;2.67;;;;;;;19.18;100.00;101280.47;20979965;28;20400;-78
2023/10/23 22:54:28;;;;;;;11.15;3.13;;;;;;;19.16;100.00;101274.25;21009429;28;20040;-77
2023/10/23 23:04:52;;;;;;;13.40;3.50;;;;;;;19.09;100.00;101278.81;21001248;28;20113;-78
2023/10/23 23:15:16;;;;;;;8.57;3.40;;;;;;;19.06;100.00;101284.16;21007171;28;20052;-78
2023/10/23 23:25:40;;;;;;;10.77;3.97;;;;;;;19.02;100.00;101269.06;21003346;28;20400;-77
2023/10/23 23:36:02;;;;;;;12.15;3.03;;;;;;;18.91;100.00;101262.91;20989742;28;20045;-78
2023/10/23 23:46:27;;;;;;;11.20;3.67;;;;;;;18.84;100.00;101247.81;20986964;28;20165;-78
2023/10/23 23:56:49;;;;;;;11.35;3.65;;;;;;;18.80;100.00;101235.41;21001431;28;20044;-78
